createdAt,value
2023-05-06T00:00:22.235Z,4.32
2023-05-06T00:02:49.425Z,4.75
2023-05-06T00:05:18.479Z,4.65
2023-05-06T00:07:46.278Z,4.45
2023-05-06T00:10:13.795Z,4.90
2023-05-06T00:12:40.914Z,4.60
2023-05-06T00:15:08.629Z,3.92
2023-05-06T00:17:36.017Z,5.40
2023-05-06T00:20:03.802Z,4.70
2023-05-06T00:22:30.801Z,4.65
2023-05-06T00:24:57.741Z,5.03
2023-05-06T00:27:24.732Z,5.15
2023-05-06T00:29:51.716Z,5.15
2023-05-06T00:32:18.691Z,4.60
2023-05-06T00:34:46.123Z,5.85
2023-05-06T00:37:13.098Z,4.72
2023-05-06T00:39:40.434Z,5.53
2023-05-06T00:42:08.016Z,6.32
2023-05-06T00:44:34.944Z,6.28
2023-05-06T00:47:02.052Z,5.38
2023-05-06T00:49:30.719Z,5.82
2023-05-06T00:51:59.059Z,5.95
2023-05-06T00:54:27.048Z,5.82
2023-05-06T00:56:54.430Z,5.65
2023-05-06T00:59:23.031Z,6.25
2023-05-06T01:01:52.174Z,5.68
2023-05-06T01:04:19.944Z,5.65
2023-05-06T01:07:20.803Z,6.97
2023-05-06T01:10:35.672Z,6.68
2023-05-06T01:13:29.494Z,6.20
2023-05-06T01:15:59.931Z,6.32
2023-05-06T01:18:30.455Z,6.15
2023-05-06T01:20:59.167Z,6.60
2023-05-06T01:23:27.279Z,6.13
2023-05-06T01:25:54.262Z,6.40
2023-05-06T01:28:21.801Z,6.80
2023-05-06T01:31:13.755Z,6.57
2023-05-06T01:33:50.831Z,5.88
2023-05-06T01:37:21.154Z,5.88
2023-05-06T01:39:49.457Z,7.10
2023-05-06T01:42:17.948Z,6.32
2023-05-06T01:44:46.356Z,6.65
2023-05-06T01:47:15.353Z,6.63
2023-05-06T01:49:42.967Z,5.78
2023-05-06T01:52:11.371Z,6.55
2023-05-06T01:54:38.325Z,5.95
2023-05-06T01:57:05.228Z,6.65
2023-05-06T01:59:32.803Z,7.25
2023-05-06T02:01:59.864Z,6.82
2023-05-06T02:04:27.118Z,6.45
2023-05-06T02:06:54.098Z,6.60
2023-05-06T02:09:21.654Z,6.90
2023-05-06T02:11:54.951Z,6.60
2023-05-06T02:14:21.982Z,6.70
2023-05-06T02:16:48.952Z,7.22
2023-05-06T02:19:15.992Z,8.05
2023-05-06T02:21:43.214Z,7.55
2023-05-06T02:24:10.310Z,6.47
2023-05-06T02:26:37.228Z,6.70
2023-05-06T02:29:04.539Z,7.53
2023-05-06T02:31:32.089Z,7.03
2023-05-06T02:33:59.074Z,6.82
2023-05-06T02:36:25.976Z,6.55
2023-05-06T02:38:54.701Z,6.13
2023-05-06T02:41:21.735Z,5.82
2023-05-06T02:43:48.634Z,6.10
2023-05-06T02:46:15.960Z,6.22
2023-05-06T02:48:43.029Z,6.32
2023-05-06T02:51:10.909Z,6.63
2023-05-06T02:53:37.966Z,7.25
2023-05-06T02:56:05.972Z,6.43
2023-05-06T02:58:32.912Z,6.70
2023-05-06T03:00:59.916Z,5.85
2023-05-06T03:03:26.965Z,6.95
2023-05-06T03:05:53.918Z,7.07
2023-05-06T03:08:21.018Z,5.95
2023-05-06T03:10:48.251Z,8.45
2023-05-06T03:13:17.757Z,8.48
2023-05-06T03:15:44.945Z,8.70
2023-05-06T03:18:11.895Z,8.32
2023-05-06T03:20:39.964Z,7.68
2023-05-06T03:23:06.880Z,6.80
2023-05-06T03:25:34.112Z,5.75
2023-05-06T03:28:01.255Z,6.28
2023-05-06T03:30:30.559Z,5.93
2023-05-06T03:33:02.048Z,7.28
2023-05-06T03:35:31.745Z,7.40
2023-05-06T03:38:00.677Z,5.97
2023-05-06T03:40:35.522Z,7.40
2023-05-06T03:43:02.779Z,7.95
2023-05-06T03:45:29.855Z,7.15
2023-05-06T03:47:59.441Z,8.48
2023-05-06T03:50:27.189Z,8.82
2023-05-06T03:52:54.975Z,7.55
2023-05-06T03:55:24.125Z,7.60
2023-05-06T03:57:51.425Z,8.00
2023-05-06T04:00:20.561Z,8.13
2023-05-06T04:02:51.909Z,7.00
2023-05-06T04:05:25.450Z,6.68
2023-05-06T04:07:52.789Z,8.13
2023-05-06T04:10:20.350Z,6.38
2023-05-06T04:12:50.396Z,7.53
2023-05-06T04:15:22.940Z,7.75
2023-05-06T04:17:50.052Z,7.60
2023-05-06T04:20:19.753Z,5.70
2023-05-06T04:22:47.022Z,6.18
2023-05-06T04:25:14.820Z,7.45
2023-05-06T04:27:43.817Z,7.60
2023-05-06T04:30:14.195Z,6.97
2023-05-06T04:32:42.581Z,6.57
2023-05-06T04:35:10.991Z,6.65
2023-05-06T04:37:39.634Z,8.00
2023-05-06T04:40:13.683Z,7.50
2023-05-06T04:42:42.924Z,6.65
2023-05-06T04:45:16.968Z,7.57
2023-05-06T04:47:47.483Z,6.68
2023-05-06T04:50:15.584Z,7.18
2023-05-06T04:52:43.439Z,6.30
2023-05-06T04:55:11.606Z,6.78
2023-05-06T04:57:43.016Z,7.18
2023-05-06T05:00:10.935Z,6.03
2023-05-06T05:02:38.185Z,5.50
2023-05-06T05:05:07.136Z,5.80
2023-05-06T05:07:34.734Z,6.75
2023-05-06T05:10:02.107Z,6.25
2023-05-06T05:12:31.476Z,6.30
2023-05-06T05:14:59.378Z,5.95
2023-05-06T05:17:26.419Z,6.05
2023-05-06T05:19:53.492Z,6.88
2023-05-06T05:22:21.192Z,5.70
2023-05-06T05:24:48.170Z,5.72
2023-05-06T05:27:17.189Z,6.28
2023-05-06T05:29:44.495Z,6.38
2023-05-06T05:32:11.526Z,5.45
2023-05-06T05:34:39.059Z,6.20
2023-05-06T05:37:06.437Z,7.28
2023-05-06T05:39:34.204Z,6.43
2023-05-06T05:42:02.383Z,6.80
2023-05-06T05:44:30.075Z,9.55
2023-05-06T05:46:57.331Z,7.75
2023-05-06T05:49:24.477Z,8.07
2023-05-06T05:51:53.190Z,9.98
2023-05-06T05:54:21.322Z,11.23
2023-05-06T05:56:53.625Z,13.25
2023-05-06T05:59:35.078Z,11.70
2023-05-06T06:02:05.297Z,13.45
2023-05-06T06:04:32.683Z,12.02
2023-05-06T06:07:01.895Z,13.38
2023-05-06T06:09:31.555Z,12.25
2023-05-06T06:12:02.000Z,14.85
2023-05-06T06:14:30.776Z,11.98
2023-05-06T06:16:58.400Z,14.60
2023-05-06T06:19:25.955Z,13.07
2023-05-06T06:21:53.383Z,15.02
2023-05-06T06:24:21.035Z,13.48
2023-05-06T06:26:48.336Z,12.40
2023-05-06T06:29:15.334Z,14.68
2023-05-06T06:31:42.227Z,14.13
2023-05-06T06:34:09.792Z,12.90
2023-05-06T06:36:36.805Z,15.15
2023-05-06T06:39:03.868Z,13.13
2023-05-06T06:41:30.746Z,12.95
2023-05-06T06:43:58.072Z,12.85
2023-05-06T06:46:29.181Z,13.30
2023-05-06T06:48:56.493Z,12.68
2023-05-06T06:51:23.850Z,12.55
2023-05-06T06:53:52.294Z,12.05
2023-05-06T06:56:19.737Z,10.30
2023-05-06T06:58:47.057Z,12.73
2023-05-06T07:01:14.504Z,11.68
2023-05-06T07:03:42.125Z,11.23
2023-05-06T07:06:09.567Z,10.98
2023-05-06T07:08:37.064Z,9.02
2023-05-06T07:11:04.460Z,9.95
2023-05-06T07:13:32.274Z,9.77
2023-05-06T07:15:59.870Z,9.15
2023-05-06T07:18:27.269Z,9.90
2023-05-06T07:20:54.576Z,10.02
2023-05-06T07:23:22.093Z,10.02
2023-05-06T07:25:49.450Z,10.63
2023-05-06T07:28:16.850Z,11.18
2023-05-06T07:30:44.998Z,10.90
2023-05-06T07:33:12.420Z,9.77
2023-05-06T07:35:39.911Z,10.68
2023-05-06T07:38:07.217Z,12.43
2023-05-06T07:40:36.104Z,11.23
2023-05-06T07:43:03.985Z,11.88
2023-05-06T07:45:31.592Z,13.52
2023-05-06T07:47:58.882Z,13.05
2023-05-06T07:50:26.418Z,12.65
2023-05-06T07:52:53.800Z,14.20
2023-05-06T07:55:21.140Z,13.93
2023-05-06T07:57:49.349Z,14.30
2023-05-06T08:00:17.005Z,14.32
2023-05-06T08:02:46.663Z,16.70
2023-05-06T08:05:14.740Z,15.60
2023-05-06T08:07:42.532Z,16.85
2023-05-06T08:10:11.049Z,16.63
2023-05-06T08:12:38.676Z,14.55
2023-05-06T08:15:06.968Z,15.52
2023-05-06T08:17:34.320Z,15.90
2023-05-06T08:20:01.647Z,16.55
2023-05-06T08:22:28.938Z,16.38
2023-05-06T08:24:57.422Z,15.85
2023-05-06T08:27:24.833Z,16.58
2023-05-06T08:29:52.188Z,17.00
2023-05-06T08:32:19.757Z,16.48
2023-05-06T08:34:47.157Z,16.17
2023-05-06T08:37:14.561Z,15.82
2023-05-06T08:39:42.428Z,16.38
2023-05-06T08:42:14.084Z,16.13
2023-05-06T08:44:44.036Z,15.32
2023-05-06T08:47:11.653Z,16.45
2023-05-06T08:49:39.003Z,15.82
2023-05-06T08:52:06.644Z,16.25
2023-05-06T08:54:36.542Z,14.18
2023-05-06T08:57:07.267Z,16.38
2023-05-06T08:59:35.806Z,16.73
2023-05-06T09:02:04.061Z,16.25
2023-05-06T09:04:31.946Z,15.48
2023-05-06T09:06:59.817Z,17.23
2023-05-06T09:09:27.305Z,16.50
2023-05-06T09:11:57.253Z,17.83
2023-05-06T09:14:25.102Z,17.52
2023-05-06T09:16:53.506Z,18.15
2023-05-06T09:19:22.430Z,17.90
2023-05-06T09:21:51.753Z,18.73
2023-05-06T09:24:24.622Z,17.60
2023-05-06T09:26:55.302Z,19.20
2023-05-06T09:29:23.879Z,17.42
2023-05-06T09:31:53.560Z,18.48
2023-05-06T09:34:21.882Z,18.42
2023-05-06T09:36:49.522Z,17.80
2023-05-06T09:39:16.868Z,17.83
2023-05-06T09:41:44.580Z,17.63
2023-05-06T09:44:12.290Z,17.60
2023-05-06T09:46:41.754Z,15.75
2023-05-06T09:49:10.337Z,17.58
2023-05-06T09:51:38.771Z,17.08
2023-05-06T09:54:06.841Z,17.17
2023-05-06T09:56:35.345Z,15.57
2023-05-06T09:59:04.355Z,15.35
2023-05-06T10:01:37.210Z,15.05
2023-05-06T10:04:09.831Z,14.02
2023-05-06T10:06:41.722Z,11.50
2023-05-06T10:09:10.371Z,14.00
2023-05-06T10:11:38.725Z,12.73
2023-05-06T10:14:07.724Z,12.15
2023-05-06T10:16:36.488Z,12.10
2023-05-06T10:19:06.679Z,13.77
2023-05-06T10:21:50.242Z,14.32
2023-05-06T10:24:54.128Z,13.65
2023-05-06T10:27:28.961Z,14.05
2023-05-06T10:30:02.808Z,16.52
2023-05-06T10:32:33.081Z,16.48
2023-05-06T10:35:53.693Z,15.82
2023-05-06T10:38:45.802Z,14.70
2023-05-06T10:41:19.722Z,13.65
2023-05-06T10:43:56.963Z,14.63
2023-05-06T10:46:28.738Z,14.52
2023-05-06T10:49:11.727Z,15.40
2023-05-06T10:52:09.764Z,15.77
2023-05-06T10:54:57.917Z,16.83
2023-05-06T10:57:41.370Z,15.98
2023-05-06T11:00:12.064Z,17.13
2023-05-06T11:02:40.588Z,15.52
2023-05-06T11:05:09.294Z,15.32
2023-05-06T11:07:37.162Z,15.02
2023-05-06T11:10:06.807Z,14.38
2023-05-06T11:12:53.009Z,14.70
2023-05-06T11:15:38.348Z,13.77
2023-05-06T11:18:30.921Z,14.35
2023-05-06T11:21:03.819Z,13.93
2023-05-06T11:23:49.590Z,12.88
2023-05-06T11:26:17.259Z,13.60
2023-05-06T11:28:51.716Z,12.18
2023-05-06T11:31:19.068Z,12.00
2023-05-06T11:33:47.926Z,11.73
2023-05-06T11:36:17.697Z,11.25
2023-05-06T11:38:51.416Z,11.13
2023-05-06T11:41:20.491Z,11.73
2023-05-06T11:43:51.612Z,9.70
2023-05-06T11:46:20.218Z,9.80
2023-05-06T11:48:47.927Z,8.38
2023-05-06T11:51:16.196Z,8.48
2023-05-06T11:53:43.584Z,8.60
2023-05-06T11:56:15.116Z,8.73
2023-05-06T11:58:46.467Z,8.95
2023-05-06T12:01:35.240Z,9.63
2023-05-06T12:04:03.782Z,7.93
2023-05-06T12:06:38.603Z,8.88
2023-05-06T12:09:07.747Z,7.45
2023-05-06T12:11:36.302Z,9.35
2023-05-06T12:14:07.340Z,11.18
2023-05-06T12:16:36.306Z,10.52
2023-05-06T12:19:04.646Z,11.70
2023-05-06T12:21:33.059Z,11.40
2023-05-06T12:24:01.722Z,11.98
2023-05-06T12:26:41.614Z,11.93
2023-05-06T12:29:15.761Z,12.02
2023-05-06T12:31:47.361Z,12.07
2023-05-06T12:34:35.723Z,11.68
2023-05-06T12:37:04.330Z,10.55
2023-05-06T12:39:39.550Z,11.00
2023-05-06T12:42:07.237Z,10.98
2023-05-06T12:44:39.978Z,8.77
2023-05-06T12:47:08.274Z,11.43
2023-05-06T12:49:52.148Z,10.30
2023-05-06T12:52:21.790Z,11.20
2023-05-06T12:54:49.958Z,10.93
2023-05-06T12:57:17.566Z,10.98
2023-05-06T12:59:46.000Z,9.60
2023-05-06T13:02:14.610Z,9.80
2023-05-06T13:04:42.376Z,9.43
2023-05-06T13:07:11.196Z,9.68
2023-05-06T13:09:39.229Z,10.13
2023-05-06T13:12:08.006Z,9.98
2023-05-06T13:14:37.688Z,9.93
2023-05-06T13:17:07.651Z,9.52
2023-05-06T13:19:35.099Z,9.65
2023-05-06T13:22:02.954Z,10.05
2023-05-06T13:24:30.830Z,10.80
2023-05-06T13:27:00.731Z,10.50
2023-05-06T13:29:29.473Z,8.52
2023-05-06T13:31:56.945Z,9.65
2023-05-06T13:34:24.470Z,10.25
2023-05-06T13:36:52.020Z,10.77
2023-05-06T13:39:19.939Z,11.93
2023-05-06T13:41:49.906Z,10.25
2023-05-06T13:44:20.917Z,11.85
2023-05-06T13:46:48.720Z,10.90
2023-05-06T13:49:16.492Z,12.57
2023-05-06T13:51:44.298Z,11.63
2023-05-06T13:54:11.808Z,13.65
2023-05-06T13:56:39.208Z,12.93
2023-05-06T13:59:08.099Z,14.20
2023-05-06T14:01:36.245Z,14.43
2023-05-06T14:04:03.749Z,14.18
2023-05-06T14:06:31.242Z,13.82
2023-05-06T14:08:58.661Z,14.80
2023-05-06T14:11:26.049Z,13.15
2023-05-06T14:13:55.011Z,14.32
2023-05-06T14:16:22.405Z,13.85
2023-05-06T14:18:49.763Z,13.43
2023-05-06T14:21:17.120Z,14.30
2023-05-06T14:23:44.856Z,14.52
2023-05-06T14:26:12.435Z,15.20
2023-05-06T14:28:39.810Z,15.77
2023-05-06T14:31:07.228Z,14.60
2023-05-06T14:33:34.583Z,15.90
2023-05-06T14:36:03.377Z,16.05
2023-05-06T14:38:31.150Z,15.32
2023-05-06T14:40:59.592Z,15.27
2023-05-06T14:43:27.046Z,14.23
2023-05-06T14:45:54.961Z,15.05
2023-05-06T14:48:25.318Z,14.88
2023-05-06T14:50:53.260Z,15.20
2023-05-06T14:53:21.456Z,13.98
2023-05-06T14:55:49.546Z,15.07
2023-05-06T14:58:17.807Z,14.20
2023-05-06T15:00:46.016Z,15.80
2023-05-06T15:03:13.427Z,15.30
2023-05-06T15:05:41.043Z,14.23
2023-05-06T15:08:08.351Z,13.68
2023-05-06T15:10:35.712Z,13.75
2023-05-06T15:13:04.414Z,13.95
2023-05-06T15:15:31.641Z,13.07
2023-05-06T15:17:58.599Z,15.45
2023-05-06T15:20:26.852Z,14.32
2023-05-06T15:22:54.287Z,15.10
2023-05-06T15:25:34.320Z,16.10
2023-05-06T15:28:02.863Z,14.95
2023-05-06T15:30:30.495Z,16.48
2023-05-06T15:32:57.970Z,14.63
2023-05-06T15:35:24.959Z,15.65
2023-05-06T15:37:58.735Z,14.93
2023-05-06T15:40:27.127Z,13.50
2023-05-06T15:42:54.224Z,13.50
2023-05-06T15:45:22.370Z,13.18
2023-05-06T15:47:49.779Z,13.23
2023-05-06T15:50:32.581Z,12.93
2023-05-06T15:53:01.568Z,12.50
2023-05-06T15:55:29.043Z,12.93
2023-05-06T15:57:59.183Z,11.65
2023-05-06T16:00:28.039Z,12.20
2023-05-06T16:02:55.392Z,12.25
2023-05-06T16:05:22.452Z,13.40
2023-05-06T16:07:49.607Z,12.88
2023-05-06T16:10:16.534Z,13.00
2023-05-06T16:12:43.548Z,12.77
2023-05-06T16:15:11.210Z,12.00
2023-05-06T16:17:38.595Z,14.45
2023-05-06T16:20:10.143Z,14.65
2023-05-06T16:22:40.041Z,13.70
2023-05-06T16:25:07.880Z,14.05
2023-05-06T16:27:35.492Z,14.73
2023-05-06T16:30:02.616Z,15.07
2023-05-06T16:32:29.624Z,14.45
2023-05-06T16:34:56.551Z,15.93
2023-05-06T16:37:23.738Z,16.40
2023-05-06T16:39:50.581Z,15.73
2023-05-06T16:42:17.526Z,13.98
2023-05-06T16:44:44.369Z,16.00
2023-05-06T16:47:11.600Z,15.80
2023-05-06T16:49:38.839Z,15.02
2023-05-06T16:52:05.827Z,14.10
2023-05-06T16:54:32.866Z,12.65
2023-05-06T16:57:00.107Z,12.50
2023-05-06T16:59:27.103Z,11.93
2023-05-06T17:01:54.112Z,11.30
2023-05-06T17:04:24.692Z,11.35
2023-05-06T17:06:51.683Z,11.68
2023-05-06T17:09:18.644Z,12.23
2023-05-06T17:11:45.548Z,13.35
2023-05-06T17:14:13.724Z,13.02
2023-05-06T17:16:43.142Z,12.77
2023-05-06T17:19:11.730Z,13.07
2023-05-06T17:21:38.615Z,15.32
2023-05-06T17:24:06.535Z,14.30
2023-05-06T17:26:34.999Z,13.68
2023-05-06T17:29:02.036Z,14.75
2023-05-06T17:31:29.230Z,14.45
2023-05-06T17:33:57.439Z,13.48
2023-05-06T17:36:24.376Z,13.07
2023-05-06T17:39:05.367Z,13.95
2023-05-06T17:41:32.633Z,13.73
2023-05-06T17:43:59.792Z,14.43
2023-05-06T17:46:27.406Z,15.65
2023-05-06T17:48:54.381Z,14.50
2023-05-06T17:51:21.918Z,15.38
2023-05-06T17:53:48.872Z,14.23
2023-05-06T17:56:16.627Z,15.52
2023-05-06T17:58:43.659Z,15.90
2023-05-06T18:01:10.732Z,14.60
2023-05-06T18:03:40.048Z,15.13
2023-05-06T18:06:07.316Z,14.02
2023-05-06T18:08:34.419Z,14.95
2023-05-06T18:11:01.710Z,13.75
2023-05-06T18:13:28.861Z,12.90
2023-05-06T18:15:55.921Z,13.23
2023-05-06T18:18:22.996Z,13.88
2023-05-06T18:20:50.262Z,12.93
2023-05-06T18:23:17.197Z,13.00
2023-05-06T18:25:47.173Z,11.27
2023-05-06T18:28:14.088Z,12.18
2023-05-06T18:30:41.971Z,11.38
2023-05-06T18:33:09.254Z,10.95
2023-05-06T18:35:36.201Z,11.32
2023-05-06T18:38:03.086Z,11.10
2023-05-06T18:40:30.102Z,11.05
2023-05-06T18:42:57.146Z,10.68
2023-05-06T18:45:24.504Z,10.15
2023-05-06T18:47:51.477Z,11.00
2023-05-06T18:50:18.488Z,10.55
2023-05-06T18:52:45.414Z,10.25
2023-05-06T18:55:12.866Z,11.25
2023-05-06T18:57:40.132Z,11.65
2023-05-06T19:00:08.105Z,11.05
2023-05-06T19:02:35.199Z,10.02
2023-05-06T19:05:02.227Z,11.73
2023-05-06T19:07:29.194Z,10.57
2023-05-06T19:09:56.963Z,11.43
2023-05-06T19:12:24.464Z,11.45
2023-05-06T19:14:51.501Z,12.07
2023-05-06T19:17:18.496Z,9.95
2023-05-06T19:19:48.552Z,10.60
2023-05-06T19:22:16.564Z,11.35
2023-05-06T19:24:45.017Z,10.77
2023-05-06T19:27:12.211Z,11.63
2023-05-06T19:29:40.987Z,10.38
2023-05-06T19:32:08.883Z,9.60
2023-05-06T19:34:35.888Z,8.88
2023-05-06T19:37:03.025Z,9.43
2023-05-06T19:39:30.006Z,8.05
2023-05-06T19:41:57.092Z,9.30
2023-05-06T19:44:24.222Z,8.85
2023-05-06T19:46:56.267Z,7.80
2023-05-06T19:49:23.614Z,8.77
2023-05-06T19:51:50.673Z,8.23
2023-05-06T19:54:19.307Z,8.02
2023-05-06T19:56:49.323Z,7.40
2023-05-06T19:59:17.601Z,7.22
2023-05-06T20:01:44.660Z,8.18
2023-05-06T20:04:12.097Z,7.65
2023-05-06T20:06:39.093Z,8.23
2023-05-06T20:09:06.091Z,8.18
2023-05-06T20:11:33.034Z,9.25
2023-05-06T20:14:00.292Z,8.73
2023-05-06T20:16:27.585Z,7.22
2023-05-06T20:18:54.638Z,7.32
2023-05-06T20:21:21.614Z,8.23
2023-05-06T20:23:48.635Z,7.50
2023-05-06T20:26:15.613Z,8.75
2023-05-06T20:28:42.599Z,9.63
2023-05-06T20:31:09.719Z,9.63
2023-05-06T20:33:37.148Z,9.93
2023-05-06T20:36:05.367Z,10.25
2023-05-06T20:38:32.338Z,8.98
2023-05-06T20:40:59.402Z,9.70
2023-05-06T20:43:26.379Z,8.60
2023-05-06T20:45:53.268Z,9.07
2023-05-06T20:48:20.277Z,8.95
2023-05-06T20:50:48.971Z,8.50
2023-05-06T20:53:16.301Z,7.78
2023-05-06T20:55:43.253Z,7.88
2023-05-06T20:58:10.184Z,6.95
2023-05-06T21:00:37.072Z,7.05
2023-05-06T21:03:04.352Z,7.65
2023-05-06T21:05:31.593Z,8.18
2023-05-06T21:07:58.545Z,7.63
2023-05-06T21:10:25.490Z,6.97
2023-05-06T21:12:52.478Z,7.97
2023-05-06T21:15:19.674Z,7.47
2023-05-06T21:17:47.489Z,7.00
2023-05-06T21:20:15.372Z,8.43
2023-05-06T21:22:42.297Z,7.70
2023-05-06T21:25:09.841Z,7.80
2023-05-06T21:27:36.941Z,7.80
2023-05-06T21:30:04.392Z,7.82
2023-05-06T21:32:33.006Z,7.80
2023-05-06T21:35:04.482Z,7.15
2023-05-06T21:37:32.537Z,8.52
2023-05-06T21:40:02.606Z,8.20
2023-05-06T21:42:29.934Z,7.43
2023-05-06T21:44:56.769Z,8.32
2023-05-06T21:47:23.877Z,8.15
2023-05-06T21:49:51.035Z,8.15
2023-05-06T21:52:18.155Z,7.90
2023-05-06T21:54:48.575Z,8.75
2023-05-06T21:57:15.542Z,9.25
2023-05-06T21:59:42.631Z,8.05
2023-05-06T22:02:09.692Z,7.80
2023-05-06T22:04:36.661Z,7.57
2023-05-06T22:07:03.598Z,7.35
2023-05-06T22:09:30.567Z,7.93
2023-05-06T22:11:57.750Z,8.43
2023-05-06T22:14:30.348Z,7.40
2023-05-06T22:17:06.819Z,8.27
2023-05-06T22:19:34.261Z,7.78
2023-05-06T22:22:01.770Z,7.50
2023-05-06T22:24:28.648Z,7.15
2023-05-06T22:26:55.686Z,6.60
2023-05-06T22:29:22.562Z,7.15
2023-05-06T22:31:49.508Z,7.05
2023-05-06T22:34:16.633Z,7.38
2023-05-06T22:36:43.572Z,6.70
2023-05-06T22:39:10.433Z,6.07
2023-05-06T22:41:37.424Z,7.20
2023-05-06T22:44:04.479Z,7.07
2023-05-06T22:46:31.516Z,7.22
2023-05-06T22:48:58.476Z,6.97
2023-05-06T22:51:25.536Z,8.70
2023-05-06T22:53:52.753Z,8.63
2023-05-06T22:56:20.100Z,8.63
2023-05-06T22:58:46.982Z,9.32
2023-05-06T23:01:13.940Z,8.95
2023-05-06T23:03:40.955Z,9.93
2023-05-06T23:06:08.099Z,10.52
2023-05-06T23:08:34.960Z,10.82
2023-05-06T23:11:02.332Z,11.15
2023-05-06T23:13:31.208Z,11.13
2023-05-06T23:15:58.178Z,11.73
2023-05-06T23:18:25.048Z,12.43
2023-05-06T23:20:51.986Z,10.93
2023-05-06T23:23:18.953Z,12.43
2023-05-06T23:25:46.048Z,12.13
2023-05-06T23:28:14.620Z,12.70
2023-05-06T23:30:42.994Z,13.55
2023-05-06T23:33:10.657Z,13.27
2023-05-06T23:35:37.718Z,13.85
2023-05-06T23:38:04.630Z,12.70
2023-05-06T23:40:31.531Z,12.65
2023-05-06T23:42:58.519Z,12.88
2023-05-06T23:45:26.846Z,13.02
2023-05-06T23:47:54.423Z,12.55
2023-05-06T23:50:21.550Z,13.43
2023-05-06T23:52:48.509Z,12.45
2023-05-06T23:55:15.435Z,13.43
2023-05-06T23:57:42.373Z,13.40
